Gretna, United Kingdom
Current Conditions -  °F | °C
As of 7:50 AM on Thursday 18 Dec 2014 (Local Time) from EGOM Reporting Station
Light Rain Light Rain  
Wind Chill: 10°   Ceiling: NA
Heat Index: 10°   Visibility: 1.6mi
Dew Point: 10°   Wind: 28mph
Humidity: 100%   Direction: 240°WSW
Pressure: 29.41"   Gusts: 39mph
Location:  54.99°N, 3.07°W
Report Text: EGOM 180750Z AUTO 24024G34KT 2700 -RA ///////// 10/10 Q0996
Loading
Personal Weather Stations






























Interactive Weather Map New forecast layout! Learn more

10-Day Weather Forecast

Advertisements
Track Severe Weather on mobile